sensor_id;sensor_type;location;lat;lon;timestamp;pressure;altitude;pressure_sealevel;temperature;humidity
1480;BME280;732;51.698;4.886;2023-04-29T00:01:55;101674.81;;;5.61;81.29
1480;BME280;732;51.698;4.886;2023-04-29T00:04:27;101686.19;;;5.63;80.97
1480;BME280;732;51.698;4.886;2023-04-29T00:06:57;101686.56;;;5.59;81.34
1480;BME280;732;51.698;4.886;2023-04-29T00:09:25;101693.97;;;5.55;82.08
1480;BME280;732;51.698;4.886;2023-04-29T00:11:54;101692.41;;;5.52;81.85
1480;BME280;732;51.698;4.886;2023-04-29T00:14:22;101691.38;;;5.44;81.93
1480;BME280;732;51.698;4.886;2023-04-29T00:16:50;101685.44;;;5.40;81.91
1480;BME280;732;51.698;4.886;2023-04-29T00:19:19;101682.66;;;5.42;82.37
1480;BME280;732;51.698;4.886;2023-04-29T00:21:47;101658.03;;;5.28;82.08
1480;BME280;732;51.698;4.886;2023-04-29T00:24:17;101672.88;;;5.42;81.94
1480;BME280;732;51.698;4.886;2023-04-29T00:26:45;101662.97;;;5.33;82.29
1480;BME280;732;51.698;4.886;2023-04-29T00:29:13;101694.88;;;5.65;81.96
1480;BME280;732;51.698;4.886;2023-04-29T00:31:42;101663.84;;;5.33;81.72
1480;BME280;732;51.698;4.886;2023-04-29T00:34:10;101703.50;;;5.58;81.97
1480;BME280;732;51.698;4.886;2023-04-29T00:36:39;101704.50;;;5.78;80.93
1480;BME280;732;51.698;4.886;2023-04-29T00:39:08;101672.22;;;5.71;80.49
1480;BME280;732;51.698;4.886;2023-04-29T00:41:40;101704.13;;;5.82;80.31
1480;BME280;732;51.698;4.886;2023-04-29T00:44:10;101699.22;;;5.66;80.79
1480;BME280;732;51.698;4.886;2023-04-29T00:46:39;101702.88;;;5.86;80.48
1480;BME280;732;51.698;4.886;2023-04-29T00:49:07;101711.13;;;6.04;79.89
1480;BME280;732;51.698;4.886;2023-04-29T00:51:37;101708.91;;;5.88;80.21
1480;BME280;732;51.698;4.886;2023-04-29T00:54:08;101708.03;;;6.09;79.88
1480;BME280;732;51.698;4.886;2023-04-29T00:56:39;101705.28;;;6.11;79.09
1480;BME280;732;51.698;4.886;2023-04-29T00:59:09;101711.63;;;6.19;79.15
1480;BME280;732;51.698;4.886;2023-04-29T01:01:41;101709.03;;;6.08;79.22
1480;BME280;732;51.698;4.886;2023-04-29T01:04:12;101687.22;;;5.93;79.36
1480;BME280;732;51.698;4.886;2023-04-29T01:06:52;101704.63;;;5.97;79.38
1480;BME280;732;51.698;4.886;2023-04-29T01:09:42;101715.59;;;5.83;79.68
1480;BME280;732;51.698;4.886;2023-04-29T01:12:27;101721.59;;;5.96;79.50
1480;BME280;732;51.698;4.886;2023-04-29T01:15:08;101715.88;;;6.01;79.43
1480;BME280;732;51.698;4.886;2023-04-29T01:17:42;101713.81;;;5.83;79.34
1480;BME280;732;51.698;4.886;2023-04-29T01:20:13;101715.94;;;5.90;79.32
1480;BME280;732;51.698;4.886;2023-04-29T01:22:42;101733.94;;;5.97;79.19
1480;BME280;732;51.698;4.886;2023-04-29T01:25:12;101727.69;;;6.08;79.38
1480;BME280;732;51.698;4.886;2023-04-29T01:28:06;101733.19;;;6.16;78.93
1480;BME280;732;51.698;4.886;2023-04-29T01:30:45;101732.53;;;6.03;78.89
1480;BME280;732;51.698;4.886;2023-04-29T01:33:31;101683.72;;;5.71;79.38
1480;BME280;732;51.698;4.886;2023-04-29T01:36:14;101733.66;;;6.00;78.45
1480;BME280;732;51.698;4.886;2023-04-29T01:41:43;101710.41;;;5.60;79.13
1480;BME280;732;51.698;4.886;2023-04-29T01:44:20;101734.13;;;5.63;79.39
1480;BME280;732;51.698;4.886;2023-04-29T01:46:51;101741.00;;;5.66;78.67
1480;BME280;732;51.698;4.886;2023-04-29T01:49:25;101703.44;;;5.48;79.25
1480;BME280;732;51.698;4.886;2023-04-29T01:51:54;101714.47;;;5.43;79.64
1480;BME280;732;51.698;4.886;2023-04-29T01:54:23;101744.50;;;5.66;79.50
1480;BME280;732;51.698;4.886;2023-04-29T01:56:53;101742.44;;;5.70;79.57
1480;BME280;732;51.698;4.886;2023-04-29T01:59:45;101752.16;;;5.60;79.63
1480;BME280;732;51.698;4.886;2023-04-29T02:02:33;101745.13;;;5.59;79.85
1480;BME280;732;51.698;4.886;2023-04-29T02:05:11;101755.38;;;5.75;79.21
1480;BME280;732;51.698;4.886;2023-04-29T02:07:44;101758.94;;;5.85;78.50
1480;BME280;732;51.698;4.886;2023-04-29T02:10:13;101710.78;;;5.55;78.26
1480;BME280;732;51.698;4.886;2023-04-29T02:12:45;101732.50;;;5.72;79.00
1480;BME280;732;51.698;4.886;2023-04-29T02:15:14;101770.31;;;5.87;78.78
1480;BME280;732;51.698;4.886;2023-04-29T02:17:43;101770.41;;;5.85;78.81
1480;BME280;732;51.698;4.886;2023-04-29T02:20:12;101774.97;;;5.74;79.17
1480;BME280;732;51.698;4.886;2023-04-29T02:22:41;101775.66;;;5.76;79.24
1480;BME280;732;51.698;4.886;2023-04-29T02:25:10;101773.13;;;5.74;79.20
1480;BME280;732;51.698;4.886;2023-04-29T02:27:38;101781.50;;;6.02;78.43
1480;BME280;732;51.698;4.886;2023-04-29T02:30:09;101747.84;;;5.80;78.02
1480;BME280;732;51.698;4.886;2023-04-29T02:32:39;101783.22;;;5.92;78.42
1480;BME280;732;51.698;4.886;2023-04-29T02:35:08;101790.91;;;5.85;79.01
1480;BME280;732;51.698;4.886;2023-04-29T02:37:36;101790.81;;;5.75;79.71
1480;BME280;732;51.698;4.886;2023-04-29T02:40:06;101793.69;;;5.83;79.41
1480;BME280;732;51.698;4.886;2023-04-29T02:42:35;101799.84;;;5.84;79.25
1480;BME280;732;51.698;4.886;2023-04-29T02:45:05;101768.13;;;5.60;79.29
1480;BME280;732;51.698;4.886;2023-04-29T02:47:35;101815.66;;;5.97;78.92
1480;BME280;732;51.698;4.886;2023-04-29T02:50:04;101810.38;;;6.07;78.54
1480;BME280;732;51.698;4.886;2023-04-29T02:52:33;101799.41;;;5.79;78.87
1480;BME280;732;51.698;4.886;2023-04-29T02:55:04;101810.91;;;6.00;78.51
1480;BME280;732;51.698;4.886;2023-04-29T02:57:33;101782.78;;;5.86;78.56
1480;BME280;732;51.698;4.886;2023-04-29T03:00:01;101812.47;;;6.03;78.41
1480;BME280;732;51.698;4.886;2023-04-29T03:02:30;101784.31;;;5.68;79.03
1480;BME280;732;51.698;4.886;2023-04-29T03:05:01;101809.22;;;5.78;79.03
1480;BME280;732;51.698;4.886;2023-04-29T03:07:29;101821.53;;;5.79;79.62
1480;BME280;732;51.698;4.886;2023-04-29T03:09:57;101824.19;;;5.91;79.23
1480;BME280;732;51.698;4.886;2023-04-29T03:12:26;101801.63;;;5.95;78.72
1480;BME280;732;51.698;4.886;2023-04-29T03:14:54;101825.34;;;6.19;78.54
1480;BME280;732;51.698;4.886;2023-04-29T03:17:22;101821.31;;;6.03;78.42
1480;BME280;732;51.698;4.886;2023-04-29T03:19:51;101812.00;;;5.98;78.36
1480;BME280;732;51.698;4.886;2023-04-29T03:22:22;101822.75;;;6.08;78.25
1480;BME280;732;51.698;4.886;2023-04-29T03:24:50;101829.81;;;5.97;78.43
1480;BME280;732;51.698;4.886;2023-04-29T03:27:19;101823.53;;;5.98;78.33
1480;BME280;732;51.698;4.886;2023-04-29T03:29:48;101803.41;;;5.73;78.49
1480;BME280;732;51.698;4.886;2023-04-29T03:32:17;101826.41;;;5.74;78.50
1480;BME280;732;51.698;4.886;2023-04-29T03:34:45;101831.44;;;5.88;77.25
1480;BME280;732;51.698;4.886;2023-04-29T03:37:33;101797.09;;;5.74;77.23
1480;BME280;732;51.698;4.886;2023-04-29T03:40:17;101829.88;;;5.86;77.62
1480;BME280;732;51.698;4.886;2023-04-29T03:42:46;101832.41;;;5.87;77.75
1480;BME280;732;51.698;4.886;2023-04-29T03:45:15;101834.72;;;6.13;76.58
1480;BME280;732;51.698;4.886;2023-04-29T03:47:46;101844.66;;;6.11;76.88
1480;BME280;732;51.698;4.886;2023-04-29T03:50:15;101836.53;;;6.34;76.53
1480;BME280;732;51.698;4.886;2023-04-29T03:52:45;101841.38;;;6.40;75.69
1480;BME280;732;51.698;4.886;2023-04-29T03:55:16;101800.53;;;5.97;76.04
1480;BME280;732;51.698;4.886;2023-04-29T03:57:44;101825.69;;;6.04;76.31
1480;BME280;732;51.698;4.886;2023-04-29T04:00:15;101824.50;;;5.97;76.69
1480;BME280;732;51.698;4.886;2023-04-29T04:02:46;101836.28;;;6.16;76.64
1480;BME280;732;51.698;4.886;2023-04-29T04:05:15;101800.53;;;5.97;76.32
1480;BME280;732;51.698;4.886;2023-04-29T04:07:50;101851.56;;;6.35;75.73
1480;BME280;732;51.698;4.886;2023-04-29T04:10:43;101828.28;;;6.16;75.66
1480;BME280;732;51.698;4.886;2023-04-29T04:13:38;101841.84;;;6.13;76.05
1480;BME280;732;51.698;4.886;2023-04-29T04:16:07;101841.22;;;6.20;75.77
1480;BME280;732;51.698;4.886;2023-04-29T04:18:37;101866.41;;;6.16;76.04
1480;BME280;732;51.698;4.886;2023-04-29T04:21:06;101813.53;;;5.79;76.34
1480;BME280;732;51.698;4.886;2023-04-29T04:23:38;101846.06;;;6.15;76.02
1480;BME280;732;51.698;4.886;2023-04-29T04:26:09;101860.56;;;6.23;76.07
1480;BME280;732;51.698;4.886;2023-04-29T04:28:48;101856.34;;;6.20;75.71
1480;BME280;732;51.698;4.886;2023-04-29T04:31:25;101859.94;;;6.30;75.33
1480;BME280;732;51.698;4.886;2023-04-29T04:33:53;101860.03;;;6.40;74.87
1480;BME280;732;51.698;4.886;2023-04-29T04:36:22;101879.56;;;6.41;75.09
1480;BME280;732;51.698;4.886;2023-04-29T04:38:52;101879.78;;;6.38;75.64
1480;BME280;732;51.698;4.886;2023-04-29T04:41:21;101885.47;;;6.33;75.68
1480;BME280;732;51.698;4.886;2023-04-29T04:43:51;101896.97;;;6.12;75.66
1480;BME280;732;51.698;4.886;2023-04-29T04:46:32;101865.75;;;6.03;75.71
1480;BME280;732;51.698;4.886;2023-04-29T04:49:17;101905.22;;;6.42;75.20
1480;BME280;732;51.698;4.886;2023-04-29T04:51:51;101881.16;;;6.32;74.94
1480;BME280;732;51.698;4.886;2023-04-29T04:54:20;101911.78;;;6.59;74.68
1480;BME280;732;51.698;4.886;2023-04-29T04:56:53;101915.34;;;6.48;74.80
1480;BME280;732;51.698;4.886;2023-04-29T04:59:21;101916.94;;;6.50;74.72
1480;BME280;732;51.698;4.886;2023-04-29T05:01:50;101918.00;;;6.59;74.67
1480;BME280;732;51.698;4.886;2023-04-29T05:04:18;101908.16;;;6.60;74.41
1480;BME280;732;51.698;4.886;2023-04-29T05:06:47;101894.16;;;6.46;74.36
1480;BME280;732;51.698;4.886;2023-04-29T05:09:21;101922.66;;;6.67;74.26
1480;BME280;732;51.698;4.886;2023-04-29T05:11:49;101922.59;;;6.78;73.58
1480;BME280;732;51.698;4.886;2023-04-29T05:14:18;101906.31;;;6.60;73.68
1480;BME280;732;51.698;4.886;2023-04-29T05:16:48;101915.84;;;6.74;73.48
1480;BME280;732;51.698;4.886;2023-04-29T05:19:19;101929.56;;;6.91;73.91
1480;BME280;732;51.698;4.886;2023-04-29T05:21:48;101906.91;;;6.64;73.61
1480;BME280;732;51.698;4.886;2023-04-29T05:24:17;101913.09;;;6.64;73.64
1480;BME280;732;51.698;4.886;2023-04-29T05:26:48;101934.50;;;6.74;73.68
1480;BME280;732;51.698;4.886;2023-04-29T05:29:18;101905.97;;;6.32;74.32
1480;BME280;732;51.698;4.886;2023-04-29T05:31:54;101954.91;;;6.64;73.98
1480;BME280;732;51.698;4.886;2023-04-29T05:34:23;101948.31;;;6.79;74.17
1480;BME280;732;51.698;4.886;2023-04-29T05:36:51;101952.16;;;6.87;73.57
1480;BME280;732;51.698;4.886;2023-04-29T05:39:20;101952.47;;;6.72;73.62
1480;BME280;732;51.698;4.886;2023-04-29T05:42:03;101954.84;;;6.75;73.58
1480;BME280;732;51.698;4.886;2023-04-29T05:44:36;101958.38;;;6.76;73.76
1480;BME280;732;51.698;4.886;2023-04-29T05:47:05;101963.34;;;6.80;73.89
1480;BME280;732;51.698;4.886;2023-04-29T05:49:37;101971.00;;;6.95;73.57
1480;BME280;732;51.698;4.886;2023-04-29T05:52:06;101974.56;;;7.05;72.88
1480;BME280;732;51.698;4.886;2023-04-29T05:54:39;101973.59;;;7.06;72.70
1480;BME280;732;51.698;4.886;2023-04-29T05:57:13;101978.03;;;6.96;73.04
1480;BME280;732;51.698;4.886;2023-04-29T05:59:43;101978.94;;;6.85;73.70
1480;BME280;732;51.698;4.886;2023-04-29T06:02:11;101992.53;;;6.82;73.70
1480;BME280;732;51.698;4.886;2023-04-29T06:04:41;101987.38;;;6.90;73.55
1480;BME280;732;51.698;4.886;2023-04-29T06:07:25;102002.63;;;6.99;73.15
1480;BME280;732;51.698;4.886;2023-04-29T06:09:58;101984.16;;;6.87;73.39
1480;BME280;732;51.698;4.886;2023-04-29T06:12:29;101997.50;;;6.87;74.01
1480;BME280;732;51.698;4.886;2023-04-29T06:15:00;101992.31;;;6.74;73.88
1480;BME280;732;51.698;4.886;2023-04-29T06:17:38;102004.56;;;6.76;74.09
1480;BME280;732;51.698;4.886;2023-04-29T06:20:10;101990.63;;;6.73;74.79
1480;BME280;732;51.698;4.886;2023-04-29T06:22:39;102014.72;;;6.82;75.17
1480;BME280;732;51.698;4.886;2023-04-29T06:25:09;102021.81;;;6.72;75.79
1480;BME280;732;51.698;4.886;2023-04-29T06:27:46;102024.28;;;6.52;76.66
1480;BME280;732;51.698;4.886;2023-04-29T06:30:17;102030.59;;;6.51;76.84
1480;BME280;732;51.698;4.886;2023-04-29T06:32:45;102019.13;;;6.40;77.41
1480;BME280;732;51.698;4.886;2023-04-29T06:35:14;102009.25;;;6.51;77.53
1480;BME280;732;51.698;4.886;2023-04-29T06:38:01;102022.31;;;6.66;76.90
1480;BME280;732;51.698;4.886;2023-04-29T06:40:44;102039.75;;;6.70;76.92
1480;BME280;732;51.698;4.886;2023-04-29T06:43:32;102032.47;;;6.72;76.71
1480;BME280;732;51.698;4.886;2023-04-29T06:46:00;102036.84;;;6.73;76.74
1480;BME280;732;51.698;4.886;2023-04-29T06:48:38;102035.66;;;6.66;77.03
1480;BME280;732;51.698;4.886;2023-04-29T06:51:06;102051.03;;;6.95;76.25
1480;BME280;732;51.698;4.886;2023-04-29T06:53:36;102031.53;;;6.94;75.61
1480;BME280;732;51.698;4.886;2023-04-29T06:56:06;102034.94;;;6.85;75.68
1480;BME280;732;51.698;4.886;2023-04-29T06:58:36;102068.47;;;7.20;75.43
1480;BME280;732;51.698;4.886;2023-04-29T07:01:06;102072.31;;;7.48;74.52
1480;BME280;732;51.698;4.886;2023-04-29T07:03:35;102050.88;;;7.60;73.82
1480;BME280;732;51.698;4.886;2023-04-29T07:06:07;102066.41;;;8.07;73.10
1480;BME280;732;51.698;4.886;2023-04-29T07:08:35;102077.28;;;8.25;71.43
1480;BME280;732;51.698;4.886;2023-04-29T07:11:03;102069.56;;;8.22;71.02
1480;BME280;732;51.698;4.886;2023-04-29T07:13:41;102087.34;;;8.42;70.45
1480;BME280;732;51.698;4.886;2023-04-29T07:16:14;102090.69;;;8.35;70.45
1480;BME280;732;51.698;4.886;2023-04-29T07:18:44;102089.91;;;8.73;70.71
1480;BME280;732;51.698;4.886;2023-04-29T07:21:12;102088.47;;;9.18;69.76
1480;BME280;732;51.698;4.886;2023-04-29T07:23:50;102089.59;;;9.35;67.21
1480;BME280;732;51.698;4.886;2023-04-29T07:26:23;102100.59;;;9.32;67.23
1480;BME280;732;51.698;4.886;2023-04-29T07:28:53;102082.31;;;8.88;67.36
1480;BME280;732;51.698;4.886;2023-04-29T07:31:23;102103.00;;;9.16;67.86
1480;BME280;732;51.698;4.886;2023-04-29T07:33:51;102106.09;;;9.31;68.28
1480;BME280;732;51.698;4.886;2023-04-29T07:36:21;102100.16;;;9.37;67.93
1480;BME280;732;51.698;4.886;2023-04-29T07:38:52;102107.53;;;8.95;67.84
1480;BME280;732;51.698;4.886;2023-04-29T07:41:20;102113.44;;;8.70;68.74
1480;BME280;732;51.698;4.886;2023-04-29T07:43:52;102125.69;;;8.62;68.70
1480;BME280;732;51.698;4.886;2023-04-29T07:46:21;102121.19;;;8.73;69.10
1480;BME280;732;51.698;4.886;2023-04-29T07:48:49;102130.91;;;8.74;69.61
1480;BME280;732;51.698;4.886;2023-04-29T07:51:18;102104.09;;;8.54;68.72
1480;BME280;732;51.698;4.886;2023-04-29T07:53:47;102111.31;;;8.64;69.29
1480;BME280;732;51.698;4.886;2023-04-29T07:56:15;102134.97;;;8.78;68.91
1480;BME280;732;51.698;4.886;2023-04-29T07:58:45;102127.13;;;8.86;68.47
1480;BME280;732;51.698;4.886;2023-04-29T08:01:16;102124.28;;;8.98;67.61
1480;BME280;732;51.698;4.886;2023-04-29T08:03:44;102092.28;;;9.06;67.97
1480;BME280;732;51.698;4.886;2023-04-29T08:06:16;102120.09;;;9.82;65.47
1480;BME280;732;51.698;4.886;2023-04-29T08:08:46;102124.44;;;10.20;65.05
1480;BME280;732;51.698;4.886;2023-04-29T08:11:17;102104.13;;;10.18;63.54
1480;BME280;732;51.698;4.886;2023-04-29T08:13:47;102089.03;;;10.45;63.12
1480;BME280;732;51.698;4.886;2023-04-29T08:16:17;102118.69;;;10.71;62.66
1480;BME280;732;51.698;4.886;2023-04-29T08:18:47;102128.81;;;10.77;61.82
1480;BME280;732;51.698;4.886;2023-04-29T08:21:18;102074.84;;;10.06;62.12
1480;BME280;732;51.698;4.886;2023-04-29T08:23:46;102131.38;;;10.51;62.15
1480;BME280;732;51.698;4.886;2023-04-29T08:26:15;102109.75;;;10.52;62.26
1480;BME280;732;51.698;4.886;2023-04-29T08:28:45;102123.59;;;10.94;62.13
1480;BME280;732;51.698;4.886;2023-04-29T08:31:18;102115.84;;;11.09;59.20
1480;BME280;732;51.698;4.886;2023-04-29T08:33:47;102118.34;;;11.28;59.89
1480;BME280;732;51.698;4.886;2023-04-29T08:36:16;102139.94;;;11.63;57.15
1480;BME280;732;51.698;4.886;2023-04-29T08:38:49;102079.81;;;11.64;58.40
1480;BME280;732;51.698;4.886;2023-04-29T08:41:21;102131.72;;;12.25;55.80
1480;BME280;732;51.698;4.886;2023-04-29T08:43:51;102138.34;;;12.05;56.15
1480;BME280;732;51.698;4.886;2023-04-29T08:46:23;102121.03;;;11.73;55.65
1480;BME280;732;51.698;4.886;2023-04-29T08:48:52;102140.16;;;11.69;57.19
1480;BME280;732;51.698;4.886;2023-04-29T08:51:22;102138.28;;;11.88;59.09
1480;BME280;732;51.698;4.886;2023-04-29T08:53:50;102129.75;;;12.36;57.13
1480;BME280;732;51.698;4.886;2023-04-29T08:56:19;102131.69;;;12.17;55.53
1480;BME280;732;51.698;4.886;2023-04-29T08:58:50;102142.66;;;11.89;56.05
1480;BME280;732;51.698;4.886;2023-04-29T09:01:22;102149.09;;;11.78;57.47
1480;BME280;732;51.698;4.886;2023-04-29T09:03:57;102147.94;;;11.99;55.94
1480;BME280;732;51.698;4.886;2023-04-29T09:06:32;102124.88;;;11.96;55.12
1480;BME280;732;51.698;4.886;2023-04-29T09:09:01;102156.47;;;11.94;54.89
1480;BME280;732;51.698;4.886;2023-04-29T09:11:30;102161.13;;;11.84;58.04
1480;BME280;732;51.698;4.886;2023-04-29T09:14:00;102157.34;;;12.46;55.58
1480;BME280;732;51.698;4.886;2023-04-29T09:16:31;102161.97;;;12.78;55.08
1480;BME280;732;51.698;4.886;2023-04-29T09:19:01;102174.13;;;12.91;52.78
1480;BME280;732;51.698;4.886;2023-04-29T09:21:30;102167.16;;;12.63;53.95
1480;BME280;732;51.698;4.886;2023-04-29T09:24:01;102172.06;;;12.68;54.69
1480;BME280;732;51.698;4.886;2023-04-29T09:26:39;102144.84;;;12.28;53.08
1480;BME280;732;51.698;4.886;2023-04-29T09:29:11;102170.59;;;12.74;53.32
1480;BME280;732;51.698;4.886;2023-04-29T09:31:44;102162.78;;;12.54;52.05
1480;BME280;732;51.698;4.886;2023-04-29T09:34:13;102171.63;;;12.89;52.52
1480;BME280;732;51.698;4.886;2023-04-29T09:36:45;102168.94;;;13.80;52.31
1480;BME280;732;51.698;4.886;2023-04-29T09:39:16;102129.53;;;13.71;48.74
1480;BME280;732;51.698;4.886;2023-04-29T09:41:59;102150.44;;;13.36;49.36
1480;BME280;732;51.698;4.886;2023-04-29T09:44:31;102176.66;;;13.91;50.61
1480;BME280;732;51.698;4.886;2023-04-29T09:47:06;102151.81;;;14.21;49.04
1480;BME280;732;51.698;4.886;2023-04-29T09:49:36;102169.88;;;14.20;49.11
1480;BME280;732;51.698;4.886;2023-04-29T09:52:09;102188.06;;;14.26;48.14
1480;BME280;732;51.698;4.886;2023-04-29T09:54:39;102156.19;;;13.41;48.96
1480;BME280;732;51.698;4.886;2023-04-29T09:57:10;102163.53;;;12.89;49.99
1480;BME280;732;51.698;4.886;2023-04-29T09:59:42;102187.50;;;12.92;51.61
1480;BME280;732;51.698;4.886;2023-04-29T10:02:14;102181.97;;;13.19;50.65
1480;BME280;732;51.698;4.886;2023-04-29T10:04:45;102189.84;;;13.78;50.86
1480;BME280;732;51.698;4.886;2023-04-29T10:07:17;102188.50;;;13.66;49.40
1480;BME280;732;51.698;4.886;2023-04-29T10:09:47;102130.56;;;13.45;48.36
1480;BME280;732;51.698;4.886;2023-04-29T10:12:16;102193.41;;;13.95;48.38
1480;BME280;732;51.698;4.886;2023-04-29T10:14:52;102192.25;;;13.65;46.85
1480;BME280;732;51.698;4.886;2023-04-29T10:17:32;102194.22;;;13.87;47.29
1480;BME280;732;51.698;4.886;2023-04-29T10:20:05;102208.78;;;14.34;45.78
1480;BME280;732;51.698;4.886;2023-04-29T10:22:44;102198.75;;;14.51;46.57
1480;BME280;732;51.698;4.886;2023-04-29T10:25:14;102200.53;;;14.36;46.79
1480;BME280;732;51.698;4.886;2023-04-29T10:27:45;102178.03;;;14.75;47.43
1480;BME280;732;51.698;4.886;2023-04-29T10:30:16;102185.25;;;15.14;46.91
1480;BME280;732;51.698;4.886;2023-04-29T10:32:47;102199.00;;;15.51;44.91
1480;BME280;732;51.698;4.886;2023-04-29T10:35:20;102180.38;;;15.71;44.01
1480;BME280;732;51.698;4.886;2023-04-29T10:37:53;102204.66;;;15.79;43.51
1480;BME280;732;51.698;4.886;2023-04-29T10:40:29;102186.13;;;15.53;43.09
1480;BME280;732;51.698;4.886;2023-04-29T10:42:58;102199.72;;;15.45;45.25
1480;BME280;732;51.698;4.886;2023-04-29T10:45:28;102171.75;;;15.52;45.09
1480;BME280;732;51.698;4.886;2023-04-29T10:48:11;102193.25;;;15.31;44.42
1480;BME280;732;51.698;4.886;2023-04-29T10:51:00;102157.41;;;14.90;45.82
1480;BME280;732;51.698;4.886;2023-04-29T10:53:30;102196.91;;;15.15;44.56
1480;BME280;732;51.698;4.886;2023-04-29T10:56:07;102165.41;;;14.75;43.64
1480;BME280;732;51.698;4.886;2023-04-29T10:58:40;102198.88;;;14.66;44.38
1480;BME280;732;51.698;4.886;2023-04-29T11:01:12;102170.03;;;14.58;44.59
1480;BME280;732;51.698;4.886;2023-04-29T11:03:54;102189.25;;;14.64;43.78
1480;BME280;732;51.698;4.886;2023-04-29T11:06:39;102188.91;;;14.67;44.30
1480;BME280;732;51.698;4.886;2023-04-29T11:09:13;102198.44;;;14.46;45.16
1480;BME280;732;51.698;4.886;2023-04-29T11:11:44;102208.09;;;14.40;47.48
1480;BME280;732;51.698;4.886;2023-04-29T11:14:14;102187.78;;;14.53;47.31
1480;BME280;732;51.698;4.886;2023-04-29T11:16:51;102175.44;;;14.58;44.38
1480;BME280;732;51.698;4.886;2023-04-29T11:19:24;102206.63;;;14.69;44.37
1480;BME280;732;51.698;4.886;2023-04-29T11:22:26;102200.53;;;14.36;46.80
1480;BME280;732;51.698;4.886;2023-04-29T11:24:57;102180.81;;;14.27;45.81
1480;BME280;732;51.698;4.886;2023-04-29T11:27:29;102195.41;;;14.01;46.12
1480;BME280;732;51.698;4.886;2023-04-29T11:29:59;102192.22;;;13.73;46.27
1480;BME280;732;51.698;4.886;2023-04-29T11:32:32;102209.22;;;14.06;47.50
1480;BME280;732;51.698;4.886;2023-04-29T11:35:09;102177.88;;;14.45;48.08
1480;BME280;732;51.698;4.886;2023-04-29T11:37:40;102171.03;;;14.66;43.39
1480;BME280;732;51.698;4.886;2023-04-29T11:40:10;102178.75;;;15.23;45.13
1480;BME280;732;51.698;4.886;2023-04-29T11:42:42;102193.63;;;15.81;44.88
1480;BME280;732;51.698;4.886;2023-04-29T11:45:11;102198.06;;;16.42;44.64
1480;BME280;732;51.698;4.886;2023-04-29T11:47:43;102206.50;;;16.83;44.12
1480;BME280;732;51.698;4.886;2023-04-29T11:50:15;102189.91;;;16.93;43.34
1480;BME280;732;51.698;4.886;2023-04-29T11:52:46;102206.97;;;17.09;41.82
1480;BME280;732;51.698;4.886;2023-04-29T11:55:15;102201.72;;;16.71;40.82
1480;BME280;732;51.698;4.886;2023-04-29T11:57:43;102197.66;;;16.45;41.75
1480;BME280;732;51.698;4.886;2023-04-29T12:00:13;102175.47;;;16.34;43.26
1480;BME280;732;51.698;4.886;2023-04-29T12:02:44;102179.06;;;16.57;45.13
1480;BME280;732;51.698;4.886;2023-04-29T12:05:15;102201.47;;;17.02;45.41
1480;BME280;732;51.698;4.886;2023-04-29T12:07:45;102167.38;;;17.14;43.42
1480;BME280;732;51.698;4.886;2023-04-29T12:10:16;102196.75;;;17.76;43.84
1480;BME280;732;51.698;4.886;2023-04-29T12:12:44;102193.13;;;17.97;38.84
1480;BME280;732;51.698;4.886;2023-04-29T12:15:13;102204.03;;;17.75;36.56
1480;BME280;732;51.698;4.886;2023-04-29T12:17:42;102196.97;;;17.31;38.77
1480;BME280;732;51.698;4.886;2023-04-29T12:20:12;102208.31;;;17.20;38.87
1480;BME280;732;51.698;4.886;2023-04-29T12:22:42;102193.09;;;17.19;45.80
1480;BME280;732;51.698;4.886;2023-04-29T12:25:10;102199.03;;;17.29;40.30
1480;BME280;732;51.698;4.886;2023-04-29T12:27:39;102191.28;;;16.67;40.02
1480;BME280;732;51.698;4.886;2023-04-29T12:30:09;102191.34;;;16.38;40.64
1480;BME280;732;51.698;4.886;2023-04-29T12:32:38;102204.97;;;16.29;42.57
1480;BME280;732;51.698;4.886;2023-04-29T12:35:14;102200.13;;;15.95;42.21
1480;BME280;732;51.698;4.886;2023-04-29T12:37:48;102202.00;;;15.94;42.05
1480;BME280;732;51.698;4.886;2023-04-29T12:40:17;102206.97;;;15.82;42.26
1480;BME280;732;51.698;4.886;2023-04-29T12:42:47;102213.31;;;15.75;43.63
1480;BME280;732;51.698;4.886;2023-04-29T12:45:30;102196.03;;;15.61;42.81
1480;BME280;732;51.698;4.886;2023-04-29T12:48:00;102212.75;;;15.79;43.45
1480;BME280;732;51.698;4.886;2023-04-29T12:50:36;102211.41;;;16.28;43.02
1480;BME280;732;51.698;4.886;2023-04-29T12:53:07;102189.72;;;16.43;42.03
1480;BME280;732;51.698;4.886;2023-04-29T12:55:37;102214.28;;;16.72;40.90
1480;BME280;732;51.698;4.886;2023-04-29T12:58:06;102212.13;;;16.67;40.14
1480;BME280;732;51.698;4.886;2023-04-29T13:00:35;102209.13;;;16.62;40.84
1480;BME280;732;51.698;4.886;2023-04-29T13:03:04;102202.00;;;16.09;40.20
1480;BME280;732;51.698;4.886;2023-04-29T13:05:33;102198.47;;;15.70;43.06
1480;BME280;732;51.698;4.886;2023-04-29T13:08:02;102216.50;;;15.78;41.20
1480;BME280;732;51.698;4.886;2023-04-29T13:10:33;102189.28;;;15.95;42.81
1480;BME280;732;51.698;4.886;2023-04-29T13:13:02;102217.00;;;16.57;41.72
1480;BME280;732;51.698;4.886;2023-04-29T13:15:31;102211.22;;;17.18;43.22
1480;BME280;732;51.698;4.886;2023-04-29T13:18:00;102214.25;;;17.73;42.23
1480;BME280;732;51.698;4.886;2023-04-29T13:20:31;102214.19;;;17.95;38.74
1480;BME280;732;51.698;4.886;2023-04-29T13:23:08;102206.97;;;17.52;38.15
1480;BME280;732;51.698;4.886;2023-04-29T13:25:38;102207.53;;;17.26;38.58
1480;BME280;732;51.698;4.886;2023-04-29T13:28:07;102213.59;;;17.49;39.18
1480;BME280;732;51.698;4.886;2023-04-29T13:30:36;102185.97;;;16.74;41.23
1480;BME280;732;51.698;4.886;2023-04-29T13:33:04;102185.47;;;16.71;39.74
1480;BME280;732;51.698;4.886;2023-04-29T13:35:39;102213.72;;;16.61;39.12
1480;BME280;732;51.698;4.886;2023-04-29T13:38:08;102216.25;;;16.48;40.32
1480;BME280;732;51.698;4.886;2023-04-29T13:40:38;102196.13;;;16.06;40.15
1480;BME280;732;51.698;4.886;2023-04-29T13:43:13;102199.00;;;15.51;39.23
1480;BME280;732;51.698;4.886;2023-04-29T13:45:58;102198.06;;;15.59;43.02
1480;BME280;732;51.698;4.886;2023-04-29T13:48:27;102209.84;;;15.89;40.81
1480;BME280;732;51.698;4.886;2023-04-29T13:51:15;102210.69;;;16.19;42.30
1480;BME280;732;51.698;4.886;2023-04-29T13:53:46;102207.16;;;16.85;41.86
1480;BME280;732;51.698;4.886;2023-04-29T13:56:19;102199.34;;;17.19;42.16